createdAt,value
2023-08-12T00:01:28.735Z,8.38
2023-08-12T00:04:19.732Z,8.18
2023-08-12T00:07:11.902Z,8.40
2023-08-12T00:09:57.145Z,8.10
2023-08-12T00:12:49.707Z,8.00
2023-08-12T00:15:35.354Z,7.63
2023-08-12T00:18:26.702Z,8.13
2023-08-12T00:21:17.695Z,8.45
2023-08-12T00:24:08.698Z,7.90
2023-08-12T00:26:53.614Z,7.57
2023-08-12T00:29:44.686Z,8.70
2023-08-12T00:32:29.705Z,8.18
2023-08-12T00:35:20.724Z,8.38
2023-08-12T00:38:05.922Z,8.73
2023-08-12T00:40:57.702Z,8.50
2023-08-12T00:43:48.700Z,8.75
2023-08-12T00:46:35.009Z,8.82
2023-08-12T00:49:26.693Z,9.32
2023-08-12T00:52:16.361Z,8.63
2023-08-12T00:55:07.702Z,8.90
2023-08-12T00:57:52.756Z,8.88
2023-08-12T01:00:44.744Z,8.43
2023-08-12T01:03:44.831Z,10.35
2023-08-12T01:06:29.877Z,10.43
2023-08-12T01:09:22.707Z,11.02
2023-08-12T01:12:16.101Z,11.30
2023-08-12T01:15:23.714Z,10.93
2023-08-12T01:18:09.153Z,11.15
2023-08-12T01:21:00.715Z,9.30
2023-08-12T01:23:46.012Z,9.00
2023-08-12T01:26:37.715Z,8.85
2023-08-12T01:29:29.705Z,9.18
2023-08-12T01:32:35.744Z,9.30
2023-08-12T01:35:32.729Z,9.07
2023-08-12T01:38:26.740Z,10.95
2023-08-12T01:41:14.384Z,10.40
2023-08-12T01:44:05.735Z,9.50
2023-08-12T01:46:51.183Z,9.88
2023-08-12T01:49:42.757Z,10.07
2023-08-12T01:52:27.854Z,11.00
2023-08-12T01:55:19.718Z,9.05
2023-08-12T01:58:05.020Z,10.10
2023-08-12T02:00:56.733Z,10.93
2023-08-12T02:03:48.897Z,10.90
2023-08-12T02:06:40.742Z,10.60
2023-08-12T02:09:26.095Z,10.65
2023-08-12T02:12:17.742Z,10.90
2023-08-12T02:15:03.020Z,10.65
2023-08-12T02:17:54.769Z,10.60
2023-08-12T02:20:48.729Z,10.73
2023-08-12T02:23:33.698Z,11.07
2023-08-12T02:26:25.757Z,11.30
2023-08-12T02:29:11.143Z,10.85
2023-08-12T02:32:02.749Z,12.70
2023-08-12T02:34:47.715Z,12.65
2023-08-12T02:37:39.752Z,13.57
2023-08-12T02:40:25.001Z,14.15
2023-08-12T02:43:17.750Z,13.75
2023-08-12T02:46:09.810Z,14.77
2023-08-12T02:48:54.543Z,13.68
2023-08-12T02:51:45.765Z,13.45
2023-08-12T02:54:30.721Z,12.93
2023-08-12T02:57:21.775Z,12.80
2023-08-12T03:00:08.732Z,13.43
2023-08-12T03:03:06.872Z,13.90
2023-08-12T03:06:04.758Z,13.82
2023-08-12T03:08:56.772Z,12.90
2023-08-12T03:11:41.821Z,14.07
2023-08-12T03:14:33.789Z,13.93
2023-08-12T03:17:18.671Z,13.85
2023-08-12T03:20:12.752Z,13.27
2023-08-12T03:23:03.775Z,13.60
2023-08-12T03:25:49.338Z,13.13
2023-08-12T03:28:40.769Z,13.40
2023-08-12T03:31:25.863Z,13.18
2023-08-12T03:34:16.780Z,13.30
2023-08-12T03:37:08.864Z,13.07
2023-08-12T03:40:00.801Z,12.35
2023-08-12T03:42:46.044Z,11.03
2023-08-12T03:45:37.758Z,10.68
2023-08-12T03:48:22.789Z,10.20
2023-08-12T03:51:13.767Z,10.80
2023-08-12T03:53:59.264Z,9.25
2023-08-12T03:56:50.790Z,10.23
2023-08-12T03:59:42.827Z,9.65
2023-08-12T04:02:47.843Z,9.68
2023-08-12T04:05:39.772Z,9.82
2023-08-12T04:08:31.786Z,9.95
2023-08-12T04:11:23.773Z,9.20
2023-08-12T04:14:15.789Z,9.95
2023-08-12T04:17:07.800Z,9.48
2023-08-12T04:19:53.019Z,9.43
2023-08-12T04:22:46.988Z,9.52
2023-08-12T04:25:39.796Z,9.67
2023-08-12T04:28:30.807Z,10.30
2023-08-12T04:31:15.714Z,10.32
2023-08-12T04:34:06.803Z,9.90
2023-08-12T04:36:57.799Z,10.30
2023-08-12T04:39:43.542Z,10.63
2023-08-12T04:42:34.826Z,10.70
2023-08-12T04:45:19.769Z,10.82
2023-08-12T04:48:11.853Z,10.60
2023-08-12T04:51:07.794Z,10.88
2023-08-12T04:53:52.946Z,10.37
2023-08-12T04:56:44.817Z,11.00
2023-08-12T04:59:29.673Z,10.95
2023-08-12T05:02:21.144Z,10.90
2023-08-12T05:05:13.956Z,9.77
2023-08-12T05:08:04.814Z,10.20
2023-08-12T05:10:56.897Z,10.02
2023-08-12T05:13:41.654Z,10.15
2023-08-12T05:16:32.871Z,9.85
2023-08-12T05:19:32.857Z,10.20
2023-08-12T05:22:30.815Z,9.83
2023-08-12T05:25:22.821Z,9.93
2023-08-12T05:28:14.832Z,9.75
2023-08-12T05:31:06.830Z,10.40
2023-08-12T05:33:51.970Z,10.45
2023-08-12T05:36:43.807Z,10.53
2023-08-12T05:39:28.993Z,9.77
2023-08-12T05:42:20.814Z,10.10
2023-08-12T05:45:08.593Z,10.02
2023-08-12T05:48:00.839Z,10.52
2023-08-12T05:50:52.838Z,9.40
2023-08-12T05:53:44.839Z,9.65
2023-08-12T05:56:29.817Z,9.32
2023-08-12T05:59:20.824Z,6.97
2023-08-12T06:02:14.132Z,3.78
2023-08-12T06:05:05.880Z,4.27
2023-08-12T06:07:56.829Z,3.08
2023-08-12T06:10:48.846Z,3.70
2023-08-12T06:13:33.703Z,2.92
2023-08-12T06:16:24.905Z,2.70
2023-08-12T06:19:09.901Z,2.20
2023-08-12T06:22:00.828Z,2.30
2023-08-12T06:24:45.852Z,2.50
2023-08-12T06:27:37.832Z,2.20
2023-08-12T06:30:29.844Z,3.35
2023-08-12T06:33:16.121Z,1.97
2023-08-12T06:36:07.847Z,2.33
2023-08-12T06:38:59.842Z,2.50
2023-08-12T06:41:51.826Z,2.20
2023-08-12T06:44:42.866Z,2.17
2023-08-12T06:47:34.887Z,2.07
2023-08-12T06:50:25.849Z,2.55
2023-08-12T06:53:17.837Z,2.10
2023-08-12T06:56:02.929Z,2.28
2023-08-12T06:58:53.853Z,2.00
2023-08-12T07:01:39.014Z,1.90
2023-08-12T07:04:36.888Z,2.00
2023-08-12T07:07:22.035Z,2.10
2023-08-12T07:10:13.877Z,2.10
2023-08-12T07:12:58.851Z,1.85
2023-08-12T07:15:49.935Z,2.20
2023-08-12T07:18:35.110Z,1.92
2023-08-12T07:21:26.934Z,2.05
2023-08-12T07:24:12.160Z,2.08
2023-08-12T07:27:05.511Z,2.17
2023-08-12T07:29:58.866Z,2.10
2023-08-12T07:32:50.898Z,1.90
2023-08-12T07:35:41.883Z,2.10
2023-08-12T07:38:33.862Z,1.50
2023-08-12T07:41:25.878Z,1.67
2023-08-12T07:44:11.076Z,1.90
2023-08-12T07:47:02.905Z,1.67
2023-08-12T07:49:48.169Z,1.83
2023-08-12T07:52:39.874Z,1.70
2023-08-12T07:55:27.286Z,1.77
2023-08-12T07:58:18.868Z,1.43
2023-08-12T08:01:11.896Z,1.40
2023-08-12T08:04:03.930Z,1.55
2023-08-12T08:07:01.892Z,1.77
2023-08-12T08:09:47.054Z,1.48
2023-08-12T08:12:38.883Z,1.43
2023-08-12T08:15:23.942Z,1.60
2023-08-12T08:18:15.939Z,1.58
2023-08-12T08:21:05.496Z,1.73
2023-08-12T08:23:57.912Z,1.20
2023-08-12T08:26:43.118Z,1.80
2023-08-12T08:29:34.892Z,1.63
2023-08-12T08:32:20.003Z,1.60
2023-08-12T08:35:11.926Z,1.65
2023-08-12T08:38:03.883Z,1.73
2023-08-12T08:40:58.891Z,1.60
2023-08-12T08:43:47.494Z,1.88
2023-08-12T08:46:39.045Z,1.60
2023-08-12T08:49:25.056Z,2.30
2023-08-12T08:52:15.882Z,1.60
2023-08-12T08:55:08.578Z,1.70
2023-08-12T08:58:01.098Z,1.33
2023-08-12T09:00:53.907Z,1.30
2023-08-12T09:03:45.945Z,1.60
2023-08-12T09:06:43.902Z,1.58
2023-08-12T09:09:29.209Z,1.50
2023-08-12T09:12:22.942Z,1.90
2023-08-12T09:15:14.912Z,1.90
2023-08-12T09:18:00.095Z,1.50
2023-08-12T09:20:51.915Z,1.50
2023-08-12T09:23:45.912Z,1.70
2023-08-12T09:26:31.083Z,1.40
2023-08-12T09:29:22.908Z,1.73
2023-08-12T09:32:19.932Z,1.40
2023-08-12T09:35:06.908Z,1.80
2023-08-12T09:37:58.937Z,1.50
2023-08-12T09:40:51.935Z,1.60
2023-08-12T09:43:42.797Z,1.30
2023-08-12T09:46:34.922Z,1.20
2023-08-12T09:49:26.932Z,1.30
2023-08-12T09:52:12.760Z,1.10
2023-08-12T09:55:04.922Z,0.90
2023-08-12T09:57:54.745Z,0.98
2023-08-12T10:00:48.946Z,0.95
2023-08-12T10:03:47.953Z,1.10
2023-08-12T10:06:39.288Z,0.80
2023-08-12T10:09:31.929Z,1.10
2023-08-12T10:12:24.940Z,1.00
2023-08-12T10:15:10.887Z,1.23
2023-08-12T10:18:03.979Z,0.82
2023-08-12T10:20:49.267Z,1.00
2023-08-12T10:23:40.947Z,0.88
2023-08-12T10:26:26.613Z,1.08
2023-08-12T10:29:18.935Z,0.93
2023-08-12T10:32:04.256Z,1.30
2023-08-12T10:35:02.951Z,1.00
2023-08-12T10:37:57.941Z,1.17
2023-08-12T10:40:43.450Z,0.90
2023-08-12T10:43:34.961Z,0.98
2023-08-12T10:46:38.600Z,1.17
2023-08-12T10:49:30.942Z,1.10
2023-08-12T10:52:39.948Z,1.02
2023-08-12T10:55:34.947Z,0.90
2023-08-12T10:58:47.960Z,1.10
2023-08-12T11:01:38.947Z,1.20
2023-08-12T11:04:32.005Z,1.20
2023-08-12T11:07:44.980Z,1.13
2023-08-12T11:10:41.972Z,0.82
2023-08-12T11:13:30.343Z,0.90
2023-08-12T11:16:21.998Z,0.70
2023-08-12T11:19:07.044Z,0.90
2023-08-12T11:21:59.955Z,0.90
2023-08-12T11:24:45.098Z,0.70
2023-08-12T11:27:43.971Z,0.85
2023-08-12T11:30:31.184Z,0.80
2023-08-12T11:33:25.971Z,1.20
2023-08-12T11:36:11.274Z,0.70
2023-08-12T11:39:03.970Z,0.77
2023-08-12T11:41:49.269Z,0.90
2023-08-12T11:44:40.975Z,1.00
2023-08-12T11:47:31.970Z,1.00
2023-08-12T11:50:23.004Z,0.90
2023-08-12T11:53:13.972Z,1.02
2023-08-12T11:56:06.015Z,0.90
2023-08-12T11:58:57.980Z,0.80
2023-08-12T12:01:56.052Z,0.77
2023-08-12T12:04:49.030Z,0.82
2023-08-12T12:07:47.005Z,1.00
2023-08-12T12:10:40.978Z,0.73
2023-08-12T12:13:26.705Z,0.90
2023-08-12T12:16:19.045Z,0.70
2023-08-12T12:19:12.991Z,0.90
2023-08-12T12:22:05.042Z,0.80
2023-08-12T12:24:50.183Z,0.82
2023-08-12T12:27:41.999Z,1.33
2023-08-12T12:30:27.174Z,0.73
2023-08-12T12:33:18.976Z,0.88
2023-08-12T12:36:05.646Z,0.80
2023-08-12T12:38:56.990Z,0.82
2023-08-12T12:41:42.350Z,0.80
2023-08-12T12:44:33.997Z,0.90
2023-08-12T12:47:20.132Z,0.80
2023-08-12T12:50:12.041Z,0.85
2023-08-12T12:52:56.929Z,0.90
2023-08-12T12:55:49.021Z,0.47
2023-08-12T12:58:35.686Z,1.00
2023-08-12T13:01:27.071Z,0.70
2023-08-12T13:04:18.138Z,0.80
2023-08-12T13:07:10.018Z,1.00
2023-08-12T13:09:55.230Z,0.70
2023-08-12T13:12:47.039Z,0.80
2023-08-12T13:15:39.043Z,0.60
2023-08-12T13:18:31.004Z,0.50
2023-08-12T13:21:22.052Z,0.57
2023-08-12T13:24:07.086Z,0.60
2023-08-12T13:27:00.510Z,0.40
2023-08-12T13:29:45.560Z,0.40
2023-08-12T13:32:37.065Z,0.40
2023-08-12T13:35:22.730Z,0.43
2023-08-12T13:38:14.007Z,0.47
2023-08-12T13:40:59.180Z,0.53
2023-08-12T13:43:51.029Z,0.57
2023-08-12T13:46:36.260Z,0.50
2023-08-12T13:49:28.047Z,0.50
2023-08-12T13:52:15.878Z,0.63
2023-08-12T13:55:08.032Z,0.30
2023-08-12T13:58:00.031Z,0.30
2023-08-12T14:00:44.876Z,0.50
2023-08-12T14:03:37.035Z,0.50
2023-08-12T14:06:36.075Z,0.50
2023-08-12T14:09:28.025Z,0.50
2023-08-12T14:12:13.010Z,0.32
2023-08-12T14:15:05.034Z,0.40
2023-08-12T14:17:50.040Z,0.30
2023-08-12T14:20:42.035Z,0.50
2023-08-12T14:23:27.134Z,0.50
2023-08-12T14:26:18.047Z,0.50
2023-08-12T14:29:10.042Z,0.38
2023-08-12T14:32:01.062Z,0.40
2023-08-12T14:34:48.938Z,0.40
2023-08-12T14:37:40.088Z,0.50
2023-08-12T14:40:32.056Z,0.38
2023-08-12T14:43:17.121Z,0.50
2023-08-12T14:46:09.087Z,0.50
2023-08-12T14:48:54.982Z,0.50
2023-08-12T14:51:46.072Z,0.40
2023-08-12T14:54:31.164Z,0.50
2023-08-12T14:57:23.061Z,0.47
2023-08-12T15:00:11.428Z,0.50
2023-08-12T15:03:03.184Z,0.40
2023-08-12T15:05:55.134Z,0.50
2023-08-12T15:08:47.103Z,0.40
2023-08-12T15:11:31.965Z,0.80
2023-08-12T15:14:25.066Z,0.70
2023-08-12T15:17:10.100Z,0.70
2023-08-12T15:20:02.072Z,0.80
2023-08-12T15:22:46.930Z,0.75
2023-08-12T15:25:39.069Z,0.68
2023-08-12T15:28:24.229Z,0.70
2023-08-12T15:31:16.149Z,0.57
2023-08-12T15:34:01.034Z,0.50
2023-08-12T15:36:52.083Z,0.60
2023-08-12T15:39:37.292Z,0.82
2023-08-12T15:42:29.073Z,0.70
2023-08-12T15:45:14.208Z,0.70
2023-08-12T15:48:06.125Z,0.73
2023-08-12T15:50:51.717Z,0.60
2023-08-12T15:53:43.068Z,0.60
2023-08-12T15:56:36.061Z,0.60
2023-08-12T15:59:22.509Z,0.75
2023-08-12T16:02:15.277Z,0.80
2023-08-12T16:05:21.085Z,0.77
2023-08-12T16:08:13.083Z,0.90
2023-08-12T16:11:05.085Z,0.73
2023-08-12T16:13:50.413Z,0.90
2023-08-12T16:16:42.108Z,0.67
2023-08-12T16:19:28.918Z,0.50
2023-08-12T16:22:22.100Z,0.80
2023-08-12T16:25:08.095Z,0.80
2023-08-12T16:28:00.104Z,0.70
2023-08-12T16:30:45.194Z,0.60
2023-08-12T16:33:37.087Z,0.60
2023-08-12T16:36:21.975Z,0.90
2023-08-12T16:39:16.094Z,0.73
2023-08-12T16:42:01.397Z,0.70
2023-08-12T16:44:53.095Z,0.50
2023-08-12T16:47:45.162Z,0.63
2023-08-12T16:50:37.101Z,0.80
2023-08-12T16:53:21.946Z,0.75
2023-08-12T16:56:14.119Z,0.60
2023-08-12T16:59:06.097Z,0.80
2023-08-12T17:01:51.279Z,0.80
2023-08-12T17:04:43.113Z,1.00
2023-08-12T17:07:35.121Z,0.70
2023-08-12T17:10:20.263Z,1.10
2023-08-12T17:13:12.110Z,0.93
2023-08-12T17:15:57.500Z,1.00
2023-08-12T17:18:49.107Z,1.20
2023-08-12T17:21:34.506Z,0.82
2023-08-12T17:24:26.113Z,0.80
2023-08-12T17:27:11.019Z,1.03
2023-08-12T17:30:03.134Z,1.10
2023-08-12T17:32:48.238Z,0.98
2023-08-12T17:35:39.133Z,1.08
2023-08-12T17:38:23.968Z,1.00
2023-08-12T17:41:15.140Z,1.00
2023-08-12T17:44:06.131Z,1.10
2023-08-12T17:46:51.222Z,1.08
2023-08-12T17:49:43.128Z,1.02
2023-08-12T17:52:34.113Z,1.00
2023-08-12T17:55:19.693Z,1.13
2023-08-12T17:58:12.119Z,1.30
2023-08-12T18:00:57.339Z,1.00
2023-08-12T18:03:49.185Z,0.90
2023-08-12T18:06:40.454Z,1.20
2023-08-12T18:09:32.125Z,1.03
2023-08-12T18:12:24.156Z,0.90
2023-08-12T18:15:15.141Z,1.20
2023-08-12T18:18:07.228Z,0.80
2023-08-12T18:20:59.151Z,0.93
2023-08-12T18:23:44.046Z,1.10
2023-08-12T18:26:35.143Z,1.00
2023-08-12T18:29:20.296Z,0.98
2023-08-12T18:32:12.541Z,0.80
2023-08-12T18:35:04.152Z,1.17
2023-08-12T18:37:55.150Z,0.80
2023-08-12T18:40:46.152Z,1.00
2023-08-12T18:43:31.066Z,1.00
2023-08-12T18:46:22.204Z,0.90
2023-08-12T18:49:14.158Z,0.93
2023-08-12T18:51:59.228Z,1.07
2023-08-12T18:54:51.153Z,1.13
2023-08-12T18:57:36.458Z,1.10
2023-08-12T19:00:28.166Z,0.95
2023-08-12T19:03:13.203Z,1.13
2023-08-12T19:06:13.170Z,1.20
2023-08-12T19:08:59.141Z,1.00
2023-08-12T19:11:52.165Z,1.20
2023-08-12T19:14:37.323Z,0.93
2023-08-12T19:17:29.223Z,1.15
2023-08-12T19:20:14.395Z,1.30
2023-08-12T19:23:06.161Z,1.40
2023-08-12T19:26:00.166Z,1.02
2023-08-12T19:28:45.643Z,1.40
2023-08-12T19:31:38.194Z,1.33
2023-08-12T19:34:32.625Z,1.30
2023-08-12T19:37:26.189Z,1.40
2023-08-12T19:40:12.399Z,1.70
2023-08-12T19:43:04.167Z,2.60
2023-08-12T19:45:55.178Z,2.33
2023-08-12T19:48:40.168Z,2.80
2023-08-12T19:51:33.203Z,3.70
2023-08-12T19:54:18.018Z,2.83
2023-08-12T19:57:09.200Z,3.25
2023-08-12T19:59:54.231Z,2.35
2023-08-12T20:02:46.195Z,1.80
2023-08-12T20:05:51.192Z,1.27
2023-08-12T20:08:43.184Z,1.77
2023-08-12T20:11:28.180Z,1.42
2023-08-12T20:14:19.194Z,1.45
2023-08-12T20:17:04.543Z,1.60
2023-08-12T20:19:56.198Z,2.00
2023-08-12T20:22:59.061Z,2.47
2023-08-12T20:25:56.209Z,4.80
2023-08-12T20:28:41.397Z,12.80
2023-08-12T20:31:33.224Z,18.03
2023-08-12T20:34:18.277Z,26.90
2023-08-12T20:37:09.203Z,42.78
2023-08-12T20:39:55.219Z,38.97
2023-08-12T20:42:46.223Z,26.48
2023-08-12T20:45:31.154Z,32.27
2023-08-12T20:48:23.196Z,24.33
2023-08-12T20:51:08.016Z,22.08
2023-08-12T20:54:00.200Z,17.92
2023-08-12T20:56:45.192Z,14.30
2023-08-12T20:59:36.210Z,14.60
2023-08-12T21:02:21.177Z,12.80
2023-08-12T21:05:13.211Z,9.30
2023-08-12T21:08:12.224Z,7.10
2023-08-12T21:10:57.443Z,6.45
2023-08-12T21:13:49.190Z,4.23
2023-08-12T21:16:41.270Z,3.70
2023-08-12T21:19:26.466Z,2.95
2023-08-12T21:22:19.219Z,2.35
2023-08-12T21:25:12.236Z,2.00
2023-08-12T21:28:04.237Z,1.90
2023-08-12T21:30:49.151Z,1.70
2023-08-12T21:33:40.206Z,2.17
2023-08-12T21:36:31.264Z,1.80
2023-08-12T21:39:16.241Z,1.80
2023-08-12T21:42:07.238Z,1.80
2023-08-12T21:44:59.224Z,1.50
2023-08-12T21:47:44.237Z,1.23
2023-08-12T21:50:35.229Z,1.48
2023-08-12T21:53:27.222Z,1.35
2023-08-12T21:56:18.231Z,1.70
2023-08-12T21:59:10.224Z,1.88
2023-08-12T22:02:02.250Z,2.33
2023-08-12T22:04:53.374Z,2.25
2023-08-12T22:07:52.243Z,2.03
2023-08-12T22:10:44.222Z,2.00
2023-08-12T22:13:29.251Z,1.50
2023-08-12T22:16:20.263Z,1.35
2023-08-12T22:19:11.226Z,1.20
2023-08-12T22:22:02.596Z,1.50
2023-08-12T22:25:08.221Z,1.17
2023-08-12T22:27:53.173Z,1.92
2023-08-12T22:30:44.247Z,1.65
2023-08-12T22:33:35.240Z,1.45
2023-08-12T22:36:20.078Z,1.48
2023-08-12T22:39:12.253Z,1.27
2023-08-12T22:41:57.396Z,1.70
2023-08-12T22:44:49.240Z,1.60
2023-08-12T22:47:34.516Z,1.73
2023-08-12T22:50:26.293Z,1.50
2023-08-12T22:53:13.729Z,2.00
2023-08-12T22:56:05.245Z,1.70
2023-08-12T22:58:50.402Z,1.88
2023-08-12T23:01:42.252Z,1.35
2023-08-12T23:04:33.277Z,1.77
2023-08-12T23:07:32.242Z,1.50
2023-08-12T23:10:17.456Z,1.63
2023-08-12T23:13:09.254Z,1.45
2023-08-12T23:15:54.236Z,1.45
2023-08-12T23:18:46.269Z,1.80
2023-08-12T23:21:31.238Z,1.60
2023-08-12T23:24:22.258Z,1.42
2023-08-12T23:27:07.360Z,1.30
2023-08-12T23:29:59.248Z,1.67
2023-08-12T23:32:44.453Z,1.27
2023-08-12T23:35:36.262Z,1.40
2023-08-12T23:38:21.208Z,1.30
2023-08-12T23:41:12.253Z,1.33
2023-08-12T23:44:03.253Z,1.50
2023-08-12T23:46:56.265Z,1.40
2023-08-12T23:49:41.196Z,1.20
2023-08-12T23:52:33.270Z,1.40
2023-08-12T23:55:18.321Z,1.10
2023-08-12T23:58:10.307Z,1.23
